createdAt,value
2023-03-06T00:01:34.014Z,6.9
2023-03-06T00:16:43.416Z,4.1
2023-03-06T00:31:52.916Z,7.7
2023-03-06T00:47:02.604Z,8.4
2023-03-06T01:02:12.386Z,3
2023-03-06T01:17:22.084Z,4.7
2023-03-06T01:32:31.511Z,6.5
2023-03-06T01:47:41.221Z,3.6
2023-03-06T02:02:50.283Z,11.5
2023-03-06T02:18:00.109Z,7.9
2023-03-06T02:33:09.618Z,8.6
2023-03-06T02:48:19.442Z,6.5
2023-03-06T03:03:29.057Z,6.1
2023-03-06T03:18:37.646Z,11.5
2023-03-06T03:33:47.305Z,4
2023-03-06T03:48:56.791Z,9.4
2023-03-06T04:04:06.374Z,4.1
2023-03-06T04:19:15.331Z,8.5
2023-03-06T04:34:24.555Z,10.7
2023-03-06T04:49:35.028Z,5.1
2023-03-06T05:04:44.807Z,7.8
2023-03-06T05:19:53.907Z,8
2023-03-06T05:35:03.166Z,5.2
2023-03-06T05:50:12.792Z,6.2
2023-03-06T06:05:22.210Z,3.8
2023-03-06T06:20:31.869Z,4.6
2023-03-06T06:35:40.950Z,4.5
2023-03-06T06:50:50.768Z,4.7
2023-03-06T07:05:59.722Z,3
2023-03-06T07:21:09.247Z,2.8
2023-03-06T07:36:18.960Z,2.5
2023-03-06T07:51:27.619Z,2.8
2023-03-06T08:06:37.090Z,2.7
2023-03-06T08:21:46.197Z,3.5
2023-03-06T08:36:56.175Z,2.5
2023-03-06T08:52:06.147Z,3
2023-03-06T09:07:16.212Z,4.6
2023-03-06T09:22:25.956Z,3.3
2023-03-06T09:37:35.468Z,2
2023-03-06T09:52:45.387Z,1.7
2023-03-06T10:07:55.438Z,1.4
2023-03-06T10:23:05.952Z,2.6
2023-03-06T10:38:15.794Z,1.8
2023-03-06T10:53:26.266Z,1.8
2023-03-06T11:08:36.563Z,4.4
2023-03-06T11:23:46.288Z,1.9
2023-03-06T11:38:56.844Z,4.3
2023-03-06T11:54:06.503Z,2.3
2023-03-06T12:09:17.013Z,1.3
2023-03-06T12:24:30.550Z,2.1
2023-03-06T12:39:40.803Z,1.4
2023-03-06T12:54:50.902Z,3.7
2023-03-06T13:10:00.337Z,6
2023-03-06T13:28:28.404Z,4.1
2023-03-06T13:43:40.282Z,1.8
2023-03-06T13:58:48.920Z,3.2
2023-03-06T14:13:59.013Z,3.8
2023-03-06T14:29:08.640Z,1.5
2023-03-06T14:44:19.682Z,1.6
2023-03-06T14:59:29.965Z,3.2
2023-03-06T15:14:38.747Z,4.3
2023-03-06T15:29:47.998Z,6.4
2023-03-06T15:44:57.840Z,3.6
2023-03-06T16:00:26.579Z,3.1
2023-03-06T16:15:38.404Z,4.4
2023-03-06T16:30:48.034Z,3.2
2023-03-06T16:45:58.512Z,4
2023-03-06T17:01:08.774Z,3.5
2023-03-06T17:16:18.876Z,13.5
2023-03-06T17:31:28.308Z,3.3
2023-03-06T17:46:38.496Z,4
2023-03-06T18:01:48.124Z,6
2023-03-06T18:16:58.032Z,6.3
2023-03-06T18:32:07.578Z,4
2023-03-06T18:47:17.812Z,4.7
2023-03-06T19:02:28.761Z,11.1
2023-03-06T19:17:38.954Z,51.5
2023-03-06T19:32:49.773Z,11
2023-03-06T19:48:00.217Z,14.1
2023-03-06T20:03:10.811Z,8.8
2023-03-06T20:18:20.778Z,9.3
2023-03-06T20:33:30.182Z,8.9
2023-03-06T20:48:39.901Z,11.6
2023-03-06T21:03:50.150Z,9.6
2023-03-06T21:18:59.490Z,10
2023-03-06T21:34:09.524Z,12.2
2023-03-06T21:49:19.047Z,13.9
2023-03-06T22:04:29.049Z,21.5
2023-03-06T22:19:39.427Z,30.6
2023-03-06T22:34:48.951Z,27.5
2023-03-06T22:49:58.407Z,36
2023-03-06T23:05:07.882Z,39.5
2023-03-06T23:20:17.950Z,35.8
2023-03-06T23:35:27.542Z,40.3
2023-03-06T23:50:37.567Z,34.8
